ADDS METAR Data INFO
IDs: Format: Raw Decoded Include TAF

Data at: 1748 UTC 21 Oct 2017

KAEX 211653Z 16011KT 9SM OVC024 27/21 A3002 RMK AO2 LTG DSNT NE SLP169 T02720211
KAEX 211633Z 15014G21KT 9SM SCT022 BKN027 OVC080 27/21 A3003 RMK AO2 T02720211
KAEX 211553Z 14009KT 8SM FEW018 BKN040 OVC070 26/22 A3003 RMK AO2 RAB30E45 SLP171 P0000 T02610217
KAEX 211501Z 13010KT 8SM SCT015 BKN036 OVC070 25/21 A3004 RMK AO2 T02500211
KAEX 211453Z 14007KT 8SM SCT015 BKN028 OVC036 25/21 A3004 RMK AO2 SLP175 T02500211 51011
KAEX 211353Z 11005KT 7SM SCT012 BKN024 OVC050 23/21 A3003 RMK AO2 SLP170 T02330211 $
KAEX 211348Z 11007KT 7SM SCT012 BKN026 OVC048 23/21 A3002 RMK AO2 $
KAEX 211324Z 13007KT 6SM BR OVC011 23/21 A3002 RMK AO2 T02280211 $
KAEX 211253Z 13006KT 7SM OVC007 22/21 A3001 RMK AO2 CIG 006V010 SLP164 T02220211 $
KAEX 211153Z 13009KT 7SM OVC006 22/21 A2999 RMK AO2 SLP159 T02220211 10222 20206 55001 $
KAEX 211118Z 13009KT 7SM OVC007 22/21 A2998 RMK AO2 T02220211 $
KAEX 211053Z 13010KT 7SM OVC010 22/21 A2998 RMK AO2 SLP156 T02220211 $
KAEX 211023Z 13011KT 7SM OVC010 22/21 A2998 RMK AO2 T02220206 $
KAEX 210953Z 13010KT 8SM OVC008 22/21 A2998 RMK AO2 CIG 006V012 SLP155 T02170206 $
KAEX 210910Z 13009KT 8SM OVC009 22/21 A2999 RMK AO2 T02220206 $
KAEX 210853Z 13010KT 9SM BKN010 OVC015 22/21 A3000 RMK AO2 CIG 008V013 SLP160 T02220206 57006 $
KAEX 210753Z 13008KT 9SM OVC012 22/20 A3001 RMK AO2 SLP164 T02220200 $
KAEX 210653Z 12009KT 9SM OVC013 22/20 A3000 RMK AO2 SLP162 T02170200 $
KAEX 210636Z 12008KT 9SM OVC014 22/20 A3001 RMK AO2 T02170200 $
KAEX 210626Z 12006KT 9SM BKN015 21/20 A3001 RMK AO2 T02110200 $
KAEX 210553Z 13006KT 9SM CLR 21/19 A3001 RMK AO2 SLP166 T02060194 10233 20206 402560150 55003 $
KAEX 210453Z 13010KT 9SM CLR 22/19 A3001 RMK AO2 SLP165 T02170194 $
KAEX 210353Z 11009KT 10SM SCT032 22/19 A3001 RMK AO2 SLP166 T02220194 $
KAEX 210253Z 00000KT 9SM SCT038 SCT055 21/18 A3002 RMK AO2 SLP169 T02060183 $
KAEX 210153Z 00000KT 10SM CLR 22/18 A3001 RMK AO2 SLP166 T02170183 $
KAEX 210053Z 00000KT 10SM CLR 21/18 A3002 RMK AO2 SLP170 T02060178 $
KAEX 202353Z 00000KT 10SM CLR 22/18 A3003 RMK AO2 SLP172 T02220178 10256 20222 53000
KAEX 202253Z 04003KT 9SM CLR 23/18 A3000 RMK AO2 SLP162 T02280178
KAEX 202153Z 07004KT 8SM CLR 24/18 A3002 RMK AO2 SLP168 T02390178
KAEX 202053Z 09008KT 9SM CLR 25/17 A3003 RMK AO2 SLP172 T02500172 56018
KAEX 201953Z 13006KT 9SM CLR 26/17 A3004 RMK AO2 SLP176 T02560167
KAEX 201853Z 12010KT 10SM CLR 26/16 A3006 RMK AO2 SLP183 T02560161
KAEX 201753Z 11009KT 9SM CLR 24/17 A3008 RMK AO2 SLP189 T02390167 10239 20178 58026
KAEX 201653Z 10008KT 9SM CLR 23/16 A3011 RMK AO2 SLP199 T02330161
KAEX 201553Z 13007KT 9SM CLR 22/16 A3015 RMK AO2 SLP212 T02170161
KAEX 201453Z 11009KT 9SM CLR 21/16 A3016 RMK AO2 SLP216 T02060161 53011
KAEX 201353Z 11006KT 8SM CLR 19/17 A3015 RMK AO2 SLP213 T01890172
KAEX 201253Z 12005KT 7SM CLR 18/17 A3013 RMK AO2 SLP206 T01830172
KAEX 201153Z 10004KT 8SM CLR 18/17 A3013 RMK AO2 SLP205 T01780172 10183 20150 53005
KAEX 201053Z 00000KT 9SM CLR 16/14 A3012 RMK AO2 SLP201 T01610139
KAEX 200953Z 00000KT 8SM CLR 17/16 A3011 RMK AO2 SLP199 T01720161
KAEX 200853Z 00000KT 8SM CLR 16/12 A3011 RMK AO2 SLP199 T01560117 58010
KAEX 200753Z 00000KT 8SM CLR 16/12 A3012 RMK AO2 SLP202 T01610122
KAEX 200653Z 00000KT 8SM CLR 16/14 A3013 RMK AO2 SLP206 T01610139
KAEX 200553Z 00000KT 6SM HZ SCT041 16/13 A3014 RMK AO2 SLP209 T01560128 10206 20150 402780094 51003